Terminal Aerodrome Forecast
Issued by NWS

Home | Current Version | Previous Version | Text Only | Print | Product List | Glossary On
Versions: 1 2 3 4 5 6 7 8 9 10 11 12 13
807
FTPA31 PHFO 271738
TAFHJH
TAF
PHJH 271738Z 2718/2818 04010KT P6SM VCSH SCT030 BKN045
     FM272100 04014G22KT P6SM FEW025 SCT045
     FM280500 05010KT P6SM VCSH SCT020 BKN040
      AMD NOT SKED AFT 280400=

USA.gov is the U.S. government's official web portal to all federal, state and local government web resources and services.